createdAt,value
2016-11-17T00:00:05.103Z,1
2016-11-17T00:05:05.032Z,2
2016-11-17T00:10:04.502Z,2
2016-11-17T00:15:04.298Z,2
2016-11-17T00:20:05.074Z,2
2016-11-17T00:25:04.447Z,0
2016-11-17T00:30:04.370Z,2
2016-11-17T00:35:04.988Z,3
2016-11-17T00:40:05.113Z,3
2016-11-17T00:45:04.646Z,1
2016-11-17T00:50:05.017Z,0
2016-11-17T00:55:04.957Z,4
2016-11-17T01:00:04.691Z,3
2016-11-17T01:05:04.218Z,0
2016-11-17T01:10:04.895Z,3
2016-11-17T01:15:04.131Z,3
2016-11-17T01:20:04.303Z,5
2016-11-17T01:25:04.522Z,4
2016-11-17T01:30:05.085Z,0
2016-11-17T01:35:04.556Z,1
2016-11-17T01:40:04.371Z,4
2016-11-17T01:45:04.532Z,2
2016-11-17T01:50:04.727Z,4
2016-11-17T01:55:04.484Z,3
2016-11-17T02:00:04.244Z,7
2016-11-17T02:05:04.333Z,4
2016-11-17T02:10:04.823Z,3
2016-11-17T02:15:04.348Z,3
2016-11-17T02:20:04.298Z,3
2016-11-17T02:25:04.138Z,1
2016-11-17T02:30:04.565Z,3
2016-11-17T02:35:04.724Z,3
2016-11-17T02:40:04.990Z,2
2016-11-17T02:45:04.002Z,2
2016-11-17T02:50:04.802Z,2
2016-11-17T02:55:04.970Z,2
2016-11-17T03:00:05.245Z,3
2016-11-17T03:05:04.821Z,2
2016-11-17T03:10:04.447Z,1
2016-11-17T03:15:04.684Z,1
2016-11-17T03:20:04.662Z,0
2016-11-17T03:25:04.729Z,0
2016-11-17T03:30:05.129Z,0
2016-11-17T03:35:04.289Z,0
2016-11-17T03:40:04.733Z,0
2016-11-17T03:45:04.274Z,0
2016-11-17T03:50:04.662Z,0
2016-11-17T03:55:04.623Z,0
2016-11-17T04:00:05.291Z,2
2016-11-17T04:05:04.865Z,1
2016-11-17T04:10:04.801Z,0
2016-11-17T04:15:05.067Z,2
2016-11-17T04:20:04.256Z,1
2016-11-17T04:25:04.813Z,0
2016-11-17T04:30:04.135Z,0
2016-11-17T04:35:04.837Z,0
2016-11-17T04:40:04.497Z,2
2016-11-17T04:45:04.813Z,0
2016-11-17T04:50:05.004Z,0
2016-11-17T04:55:04.186Z,3
2016-11-17T05:00:04.634Z,1
2016-11-17T05:05:04.953Z,0
2016-11-17T05:10:04.956Z,1
2016-11-17T05:15:03.936Z,2
2016-11-17T05:20:04.727Z,2
2016-11-17T05:25:04.899Z,2
2016-11-17T05:30:04.650Z,2
2016-11-17T05:35:05.162Z,3
2016-11-17T05:40:04.354Z,2
2016-11-17T05:45:04.572Z,3
2016-11-17T05:50:03.912Z,2
2016-11-17T06:00:05.994Z,4
2016-11-17T06:05:04.546Z,4
2016-11-17T06:10:03.926Z,3
2016-11-17T06:15:04.954Z,2
2016-11-17T06:20:04.119Z,2
2016-11-17T06:25:04.835Z,0
2016-11-17T06:30:04.680Z,0
2016-11-17T06:35:05.587Z,5
2016-11-17T06:40:04.828Z,0
2016-11-17T06:45:05.070Z,2
2016-11-17T06:50:04.961Z,1
2016-11-17T06:55:04.766Z,0
2016-11-17T07:00:04.893Z,0
2016-11-17T07:05:04.322Z,1
2016-11-17T07:10:04.875Z,0
2016-11-17T07:15:04.908Z,4
2016-11-17T07:20:04.765Z,2
2016-11-17T07:25:04.891Z,1
2016-11-17T07:30:04.815Z,2
2016-11-17T07:35:05.245Z,6
2016-11-17T07:40:04.890Z,5
2016-11-17T07:45:04.057Z,8
2016-11-17T07:50:04.635Z,3
2016-11-17T07:55:04.168Z,7
2016-11-17T08:00:04.694Z,7
2016-11-17T08:05:04.944Z,3
2016-11-17T08:10:04.334Z,5
2016-11-17T08:15:04.237Z,7
2016-11-17T08:20:04.825Z,4
2016-11-17T08:25:05.060Z,5
2016-11-17T08:30:05.003Z,7
2016-11-17T08:35:04.720Z,3
2016-11-17T08:40:04.256Z,4
2016-11-17T08:45:04.719Z,4
2016-11-17T08:50:04.396Z,9
2016-11-17T08:55:04.873Z,4
2016-11-17T09:00:04.248Z,5
2016-11-17T09:05:04.853Z,4
2016-11-17T09:10:04.760Z,4
2016-11-17T09:15:04.863Z,5
2016-11-17T09:20:04.595Z,5
2016-11-17T09:25:04.005Z,3
2016-11-17T09:30:04.426Z,2
2016-11-17T09:35:04.146Z,3
2016-11-17T09:40:04.917Z,8
2016-11-17T09:45:04.509Z,3
2016-11-17T09:50:04.310Z,7
2016-11-17T09:55:04.905Z,0
2016-11-17T10:00:04.859Z,7
2016-11-17T10:05:04.994Z,4
2016-11-17T10:10:04.595Z,8
2016-11-17T10:15:04.716Z,10
2016-11-17T10:20:05.096Z,5
2016-11-17T10:25:04.452Z,7
2016-11-17T10:30:04.845Z,5
2016-11-17T10:35:04.216Z,9
2016-11-17T10:40:04.668Z,10
2016-11-17T10:45:04.773Z,8
2016-11-17T10:50:04.123Z,8
2016-11-17T10:55:04.601Z,8
2016-11-17T11:00:04.721Z,6
2016-11-17T11:05:04.246Z,6
2016-11-17T11:10:04.460Z,6
2016-11-17T11:15:04.768Z,7
2016-11-17T11:20:04.626Z,4
2016-11-17T11:25:04.146Z,5
2016-11-17T11:30:04.678Z,9
2016-11-17T11:35:04.362Z,4
2016-11-17T11:40:04.175Z,5
2016-11-17T11:45:04.500Z,6
2016-11-17T11:50:04.802Z,12
2016-11-17T11:55:04.502Z,7
2016-11-17T12:00:04.443Z,7
2016-11-17T12:05:04.155Z,6
2016-11-17T12:10:04.195Z,4
2016-11-17T12:15:05.149Z,6
2016-11-17T12:20:04.652Z,12
2016-11-17T12:25:04.360Z,6
2016-11-17T12:30:04.838Z,5
2016-11-17T12:35:04.745Z,5
2016-11-17T12:40:04.595Z,6
2016-11-17T12:45:04.159Z,12
2016-11-17T12:50:04.654Z,5
2016-11-17T12:55:04.464Z,9
2016-11-17T13:00:05.008Z,7
2016-11-17T13:05:04.633Z,9
2016-11-17T13:10:04.198Z,10
2016-11-17T13:15:04.969Z,10
2016-11-17T13:20:04.609Z,4
2016-11-17T13:25:04.734Z,4
2016-11-17T13:30:04.048Z,7
2016-11-17T13:35:04.391Z,12
2016-11-17T13:40:05.070Z,7
2016-11-17T13:45:04.676Z,7
2016-11-17T13:50:05.086Z,5
2016-11-17T13:55:04.512Z,7
2016-11-17T14:00:04.131Z,8
2016-11-17T14:05:04.823Z,7
2016-11-17T14:10:04.332Z,5
2016-11-17T14:15:04.377Z,6
2016-11-17T14:20:04.721Z,7
2016-11-17T14:25:05.013Z,7
2016-11-17T14:30:04.319Z,8
2016-11-17T14:35:04.987Z,6
2016-11-17T14:40:04.888Z,11
2016-11-17T14:45:04.227Z,8
2016-11-17T14:50:04.049Z,9
2016-11-17T14:55:04.701Z,9
2016-11-17T15:00:04.847Z,6
2016-11-17T15:05:04.590Z,11
2016-11-17T15:10:04.919Z,5
2016-11-17T15:15:04.749Z,5
2016-11-17T15:20:04.214Z,9
2016-11-17T15:25:04.454Z,16
2016-11-17T15:30:04.731Z,11
2016-11-17T15:35:04.212Z,10
2016-11-17T15:40:04.872Z,9
2016-11-17T15:45:04.292Z,9
2016-11-17T15:50:04.286Z,9
2016-11-17T15:55:04.765Z,9
2016-11-17T16:00:04.850Z,10
2016-11-17T16:05:04.729Z,12
2016-11-17T16:10:04.406Z,7
2016-11-17T16:15:04.632Z,9
2016-11-17T16:20:04.846Z,8
2016-11-17T16:25:04.384Z,7
2016-11-17T16:30:04.366Z,6
2016-11-17T16:35:05.182Z,10
2016-11-17T16:40:04.582Z,15
2016-11-17T16:45:04.885Z,16
2016-11-17T16:50:04.892Z,10
2016-11-17T16:55:04.362Z,39
2016-11-17T17:00:04.851Z,11
2016-11-17T17:05:04.042Z,10
2016-11-17T17:10:04.557Z,16
2016-11-17T17:15:05.099Z,9
2016-11-17T17:20:04.514Z,11
2016-11-17T17:25:04.052Z,15
2016-11-17T17:30:04.376Z,7
2016-11-17T17:35:04.401Z,13
2016-11-17T17:40:04.657Z,6
2016-11-17T17:45:04.301Z,10
2016-11-17T17:50:04.504Z,9
2016-11-17T17:55:05.108Z,11
2016-11-17T18:00:04.140Z,14
2016-11-17T18:05:04.769Z,8
2016-11-17T18:10:04.967Z,10
2016-11-17T18:15:04.253Z,14
2016-11-17T18:20:04.804Z,11
2016-11-17T18:25:04.583Z,16
2016-11-17T18:30:04.845Z,11
2016-11-17T18:35:05.006Z,9
2016-11-17T18:40:04.479Z,10
2016-11-17T18:45:04.438Z,15
2016-11-17T18:50:04.984Z,12
2016-11-17T18:55:05.101Z,12
2016-11-17T19:00:04.395Z,11
2016-11-17T19:05:04.614Z,13
2016-11-17T19:10:04.262Z,18
2016-11-17T19:15:04.987Z,9
2016-11-17T19:20:04.512Z,11
2016-11-17T19:25:04.628Z,7
2016-11-17T19:30:05.025Z,8
2016-11-17T19:35:04.419Z,9
2016-11-17T19:40:04.493Z,15
2016-11-17T19:45:04.466Z,14
2016-11-17T19:50:04.602Z,7
2016-11-17T19:55:04.854Z,9
2016-11-17T20:00:04.988Z,9
2016-11-17T20:05:04.963Z,15
2016-11-17T20:10:04.326Z,16
2016-11-17T20:15:04.494Z,10
2016-11-17T20:20:04.758Z,8
2016-11-17T20:25:04.660Z,7
2016-11-17T20:30:04.311Z,5
2016-11-17T20:35:04.614Z,8
2016-11-17T20:40:04.339Z,12
2016-11-17T20:45:04.602Z,12
2016-11-17T20:50:04.819Z,7
2016-11-17T20:55:04.928Z,8
2016-11-17T21:00:05.048Z,11
2016-11-17T21:05:04.742Z,17
2016-11-17T21:10:05.033Z,10
2016-11-17T21:15:04.128Z,7
2016-11-17T21:20:04.555Z,10
2016-11-17T21:25:04.694Z,14
2016-11-17T21:30:04.794Z,14
2016-11-17T21:35:04.258Z,16
2016-11-17T21:40:04.111Z,9
2016-11-17T21:45:04.234Z,8
2016-11-17T21:50:04.099Z,14
2016-11-17T21:55:04.792Z,10
2016-11-17T22:00:04.184Z,8
2016-11-17T22:05:04.832Z,9
2016-11-17T22:10:04.427Z,10
2016-11-17T22:15:04.270Z,8
2016-11-17T22:20:04.903Z,14
2016-11-17T22:25:04.539Z,10
2016-11-17T22:30:04.975Z,5
2016-11-17T22:35:04.281Z,11
2016-11-17T22:40:04.748Z,15
2016-11-17T22:45:04.987Z,14
2016-11-17T22:50:04.136Z,12
2016-11-17T22:55:04.870Z,10
2016-11-17T23:00:04.280Z,11
2016-11-17T23:05:04.927Z,6
2016-11-17T23:10:04.444Z,6
2016-11-17T23:15:04.386Z,4
2016-11-17T23:20:04.789Z,5
2016-11-17T23:25:04.536Z,4
2016-11-17T23:30:04.812Z,5
2016-11-17T23:35:04.339Z,6
2016-11-17T23:40:04.582Z,5
2016-11-17T23:45:04.283Z,4
2016-11-17T23:50:04.588Z,8
2016-11-17T23:55:04.257Z,5
